PAH - Barkley Rgnl

Pirep is a free, collaborative database of all public and private airports located within the United States. All pilots are welcome to contribute, edit, and improve any airport they have local knowledge about, no registration required.
Are you familiar with this airport? Help out other pilots by adding your local knowledge.
Uploaded photos will be licensed under a CC BY-SA 4.0 license. Please only upload photos you have the rights to use.
Tags
Public
Undocu­mented
METAR / TAF
Edit Tags
Food
Camping
Lodging
Car Rental
Bicycles
Swimming
Golfing
Fishing
Hot Springs
Museum
Flying Clubs
Airpark
Upcoming Events
No upcoming events. Is anything happening here soon?
*
*
*

Where exactly on/near the airport is this event taking place?

Is there a webpage with more information for this event?

Who should be contacted for more information?

What is this event all about?

Repeat every
Description
Transient Parking
Fuel Location
Landing & Tie-down Fees
Crew Car Availability
Flying Clubs
WiFi Access
Airport Statistics
Location: Paducah, KY
Elevation: 410ft
Sectional: St Louis
Activation date: Jan 1943
Fuel: 100LL, A (prices)
Runway 05/23: 6,500ft
Runway 14/32: 5,499ft
Access: Open to the public
Current Weather — VFR
  • Weather data is strictly informational and not for flight planning purposes.
  • METAR
    2024-04-24 10:53:00 CDT
    Ceiling Wind Temperature Dewpoint Weather Visbility
    Sky clear 50° @ 6kt 66°F 46°F N/A 10SM
    Raw: KPAH 241553Z 05006KT 10SM CLR 19/08 A3016 RMK AO2 SLP211 T01940078
  • TAF
    2024-04-24 07:00:00 CDT – 2024-04-24 08:00:00 CDT
    Ceiling Wind Weather Visbility
    3,000ft 350° @ 3kt Mist 5SM
    Clouds: Overcast @ 3,000ft
    Raw: KPAH 241136Z 2412/2512 35003KT 5SM BR OVC030 TEMPO 2412/2413 2SM BR VV002 FM241300 30005KT P6SM SCT025 FM241500 02008KT P6SM SCT250 FM250100 02006KT P6SM BKN150
  • TAF
    2024-04-24 07:00:00 CDT – 2024-04-24 08:00:00 CDT
    Ceiling Wind Weather Visbility
    200ft ° @ kt Mist 2SM
    Clouds: Obscured @ 200ft
    Raw: KPAH 241136Z 2412/2512 35003KT 5SM BR OVC030 TEMPO 2412/2413 2SM BR VV002 FM241300 30005KT P6SM SCT025 FM241500 02008KT P6SM SCT250 FM250100 02006KT P6SM BKN150
  • TAF
    2024-04-24 08:00:00 CDT – 2024-04-24 10:00:00 CDT
    Ceiling Wind Weather Visbility
    Sky clear 300° @ 5kt N/A 6SM
    Clouds: Scattered @ 2,500ft
    Raw: KPAH 241136Z 2412/2512 35003KT 5SM BR OVC030 TEMPO 2412/2413 2SM BR VV002 FM241300 30005KT P6SM SCT025 FM241500 02008KT P6SM SCT250 FM250100 02006KT P6SM BKN150
  • TAF
    2024-04-24 10:00:00 CDT – 2024-04-24 20:00:00 CDT
    Ceiling Wind Weather Visbility
    Sky clear 20° @ 8kt N/A 6SM
    Clouds: Scattered @ 25,000ft
    Raw: KPAH 241136Z 2412/2512 35003KT 5SM BR OVC030 TEMPO 2412/2413 2SM BR VV002 FM241300 30005KT P6SM SCT025 FM241500 02008KT P6SM SCT250 FM250100 02006KT P6SM BKN150
  • TAF
    2024-04-24 20:00:00 CDT – 2024-04-25 07:00:00 CDT
    Ceiling Wind Weather Visbility
    15,000ft 20° @ 6kt N/A 6SM
    Clouds: Broken @ 15,000ft
    Raw: KPAH 241136Z 2412/2512 35003KT 5SM BR OVC030 TEMPO 2412/2413 2SM BR VV002 FM241300 30005KT P6SM SCT025 FM241500 02008KT P6SM SCT250 FM250100 02006KT P6SM BKN150
Click/tap to add an annotation marker to the map
Airport Webcams
No webcams added yet.
Direct links to live image URLs will be displayed inline on this page. URLs to separate webpages will be linked to.
URL:
Direct links to live image URLs will be displayed inline on this page. URLs to separate webpages will be linked to.
URL:
Remarks
  • Existed prior to 1959.
  • Acr ops with more than 30 pax seats 24 hr ppr - 270-744-0521.
  • Nws on arpt - 270-744-6440.
  • Sfc cond not mntd 0001-0500; wet sfc cond not rprtd.
  • For cd ctc memphis artcc at 901-368-8453/8449.
Comments
Leave a comment What was your experience like at this airport?